RYR18A EIDW-EGKK
Flight info
| Callsign | RYR18A |
|---|---|
| Flight time | 0h 50m |
| Altitude | 28000 |
| Route | EIDW ENDE1E ENDEQ Q36 EPOXI L15 KEPAD L151 DISIT DISI1G EGKK |
| Aircraft | B738/M-L/FMC |
Departure
| Time | 2026-05-04 11:16 |
|---|---|
| Airport | Dublin Airport (EIDW) |
Arrival
| Time | 2026-05-04 12:07 |
|---|---|
| Airport | London Gatwick Airport (EGKK) |
| Time | Latitude | Longitude | Altitude | Speed | Heading |
|---|---|---|---|---|---|
| 2026-05-04 10:54 | 53.43014 | -6.25074 | 224 ft | 0 kts | 2° |
| 2026-05-04 11:01 | 53.43010 | -6.25075 | 224 ft | 5 kts | 2° |
| 2026-05-04 11:02 | 53.42982 | -6.25077 | 224 ft | 1 kts | 1° |
| 2026-05-04 11:02 | 53.42963 | -6.25076 | 224 ft | 3 kts | 346° |
| 2026-05-04 11:05 | 53.42957 | -6.25092 | 224 ft | 7 kts | 274° |
| 2026-05-04 11:06 | 53.42962 | -6.25182 | 224 ft | 8 kts | 276° |
| 2026-05-04 11:06 | 53.42954 | -6.25269 | 225 ft | 8 kts | 248° |
| 2026-05-04 11:06 | 53.42929 | -6.25345 | 224 ft | 7 kts | 230° |
| 2026-05-04 11:06 | 53.42904 | -6.25389 | 224 ft | 0 kts | 224° |
| 2026-05-04 11:08 | 53.42635 | -6.25725 | 224 ft | 8 kts | 157° |
| 2026-05-04 11:10 | 53.42268 | -6.26239 | 224 ft | 13 kts | 261° |
| 2026-05-04 11:12 | 53.42320 | -6.27274 | 224 ft | 18 kts | 275° |
| 2026-05-04 11:12 | 53.42331 | -6.27481 | 224 ft | 17 kts | 275° |
| 2026-05-04 11:12 | 53.42342 | -6.27680 | 224 ft | 17 kts | 276° |
| 2026-05-04 11:12 | 53.42353 | -6.27872 | 224 ft | 16 kts | 276° |
| 2026-05-04 11:13 | 53.42364 | -6.28057 | 224 ft | 16 kts | 275° |
| 2026-05-04 11:13 | 53.42374 | -6.28234 | 224 ft | 15 kts | 274° |
| 2026-05-04 11:13 | 53.42322 | -6.28319 | 226 ft | 12 kts | 185° |
| 2026-05-04 11:13 | 53.42251 | -6.28266 | 232 ft | 11 kts | 163° |
| 2026-05-04 11:14 | 53.42225 | -6.28264 | 235 ft | 11 kts | 178° |
| 2026-05-04 11:14 | 53.42128 | -6.26934 | 227 ft | 126 kts | 95° |
| 2026-05-04 11:16 | 53.41214 | -6.10222 | 4106 ft | 240 kts | 94° |
| 2026-05-04 11:16 | 53.41052 | -6.07408 | 4678 ft | 249 kts | 94° |
| 2026-05-04 11:16 | 53.40895 | -6.04400 | 5140 ft | 264 kts | 90° |
| 2026-05-04 11:17 | 53.41013 | -6.01311 | 5874 ft | 267 kts | 82° |
| 2026-05-04 11:17 | 53.41259 | -5.98208 | 6658 ft | 270 kts | 82° |
| 2026-05-04 11:19 | 53.42878 | -5.75498 | 10350 ft | 292 kts | 83° |
| 2026-05-04 11:19 | 53.43119 | -5.71972 | 10501 ft | 316 kts | 83° |
| 2026-05-04 11:19 | 53.43377 | -5.68188 | 10755 ft | 334 kts | 83° |
| 2026-05-04 11:19 | 53.43643 | -5.64267 | 11327 ft | 341 kts | 84° |
| 2026-05-04 11:20 | 53.43912 | -5.60308 | 12046 ft | 343 kts | 84° |
| 2026-05-04 11:20 | 53.44179 | -5.56327 | 12758 ft | 345 kts | 84° |
| 2026-05-04 11:20 | 53.44448 | -5.52296 | 13426 ft | 349 kts | 84° |
| 2026-05-04 11:20 | 53.44658 | -5.48212 | 14007 ft | 356 kts | 89° |
| 2026-05-04 11:22 | 53.43666 | -5.15569 | 16434 ft | 419 kts | 93° |
| 2026-05-04 11:22 | 53.43527 | -5.10656 | 16929 ft | 422 kts | 93° |
| 2026-05-04 11:23 | 53.43385 | -5.05726 | 17433 ft | 425 kts | 93° |
| 2026-05-04 11:23 | 53.43240 | -5.00758 | 17945 ft | 428 kts | 93° |
| 2026-05-04 11:24 | 53.42270 | -4.70425 | 20526 ft | 441 kts | 94° |
| 2026-05-04 11:25 | 53.42088 | -4.65282 | 20946 ft | 443 kts | 94° |
| 2026-05-04 11:25 | 53.41904 | -4.60112 | 21366 ft | 445 kts | 94° |
| 2026-05-04 11:25 | 53.41747 | -4.55747 | 21698 ft | 446 kts | 94° |
| 2026-05-04 11:26 | 53.41367 | -4.45300 | 22426 ft | 451 kts | 94° |
| 2026-05-04 11:27 | 53.39980 | -4.09023 | 25648 ft | 442 kts | 94° |
| 2026-05-04 11:28 | 53.39776 | -4.03894 | 26141 ft | 439 kts | 94° |
| 2026-05-04 11:28 | 53.39570 | -3.98797 | 26599 ft | 438 kts | 94° |
| 2026-05-04 11:28 | 53.39365 | -3.93712 | 27010 ft | 437 kts | 94° |
| 2026-05-04 11:28 | 53.39165 | -3.88629 | 27415 ft | 437 kts | 94° |
| 2026-05-04 11:29 | 53.38967 | -3.83562 | 27882 ft | 435 kts | 94° |
| 2026-05-04 11:29 | 53.38769 | -3.78510 | 28129 ft | 437 kts | 94° |
| 2026-05-04 11:29 | 53.38564 | -3.73388 | 28012 ft | 445 kts | 94° |
| 2026-05-04 11:29 | 53.38332 | -3.68209 | 28089 ft | 448 kts | 97° |
| 2026-05-04 11:31 | 53.28065 | -3.35385 | 28099 ft | 472 kts | 131° |
| 2026-05-04 11:33 | 53.12802 | -3.06816 | 28085 ft | 471 kts | 130° |
| 2026-05-04 11:33 | 53.08473 | -2.98720 | 28072 ft | 471 kts | 130° |
| 2026-05-04 11:34 | 53.04114 | -2.90590 | 28067 ft | 471 kts | 130° |
| 2026-05-04 11:34 | 52.99752 | -2.82485 | 28069 ft | 470 kts | 131° |
| 2026-05-04 11:35 | 52.95379 | -2.74380 | 28080 ft | 470 kts | 131° |
| 2026-05-04 11:35 | 52.91013 | -2.66313 | 28072 ft | 470 kts | 131° |
| 2026-05-04 11:36 | 52.86637 | -2.58247 | 28077 ft | 469 kts | 131° |
| 2026-05-04 11:36 | 52.82295 | -2.50292 | 28065 ft | 470 kts | 133° |
| 2026-05-04 11:37 | 52.77201 | -2.43514 | 28100 ft | 470 kts | 146° |
| 2026-05-04 11:37 | 52.71689 | -2.37675 | 28071 ft | 471 kts | 146° |
| 2026-05-04 11:38 | 52.66208 | -2.31707 | 28072 ft | 471 kts | 146° |
| 2026-05-04 11:38 | 52.60803 | -2.25759 | 28037 ft | 453 kts | 146° |
| 2026-05-04 11:39 | 52.58234 | -2.22933 | 28063 ft | 435 kts | 146° |
| 2026-05-04 11:39 | 52.55788 | -2.20247 | 28036 ft | 420 kts | 146° |
| 2026-05-04 11:40 | 52.41811 | -2.04976 | 26024 ft | 397 kts | 147° |
| 2026-05-04 11:41 | 52.39522 | -2.02486 | 25639 ft | 392 kts | 147° |
| 2026-05-04 11:41 | 52.37253 | -2.00018 | 25182 ft | 390 kts | 148° |
| 2026-05-04 11:41 | 52.34998 | -1.97570 | 24768 ft | 388 kts | 148° |
| 2026-05-04 11:41 | 52.32749 | -1.95134 | 24336 ft | 386 kts | 148° |
| 2026-05-04 11:42 | 52.30548 | -1.92752 | 23931 ft | 384 kts | 148° |
| 2026-05-04 11:42 | 52.28327 | -1.90351 | 23502 ft | 381 kts | 148° |
| 2026-05-04 11:42 | 52.26113 | -1.87963 | 23013 ft | 379 kts | 148° |
| 2026-05-04 11:42 | 52.23919 | -1.85613 | 22584 ft | 376 kts | 148° |
| 2026-05-04 11:43 | 52.21738 | -1.83284 | 22194 ft | 372 kts | 148° |
| 2026-05-04 11:43 | 52.19575 | -1.80977 | 21749 ft | 370 kts | 148° |
| 2026-05-04 11:43 | 52.17434 | -1.78694 | 21382 ft | 366 kts | 148° |
| 2026-05-04 11:43 | 52.15305 | -1.76425 | 20968 ft | 365 kts | 148° |
| 2026-05-04 11:44 | 52.13178 | -1.74161 | 20553 ft | 365 kts | 148° |
| 2026-05-04 11:44 | 52.11049 | -1.71900 | 20155 ft | 365 kts | 148° |
| 2026-05-04 11:44 | 52.08952 | -1.69672 | 19798 ft | 362 kts | 148° |
| 2026-05-04 11:44 | 52.06854 | -1.67444 | 19522 ft | 358 kts | 148° |
| 2026-05-04 11:45 | 52.04774 | -1.65238 | 19195 ft | 356 kts | 148° |
| 2026-05-04 11:45 | 52.02707 | -1.63048 | 18890 ft | 354 kts | 148° |
| 2026-05-04 11:45 | 52.00651 | -1.60870 | 18584 ft | 354 kts | 148° |
| 2026-05-04 11:45 | 51.98579 | -1.58679 | 18279 ft | 356 kts | 148° |
| 2026-05-04 11:46 | 51.96500 | -1.56482 | 17932 ft | 357 kts | 148° |
| 2026-05-04 11:46 | 51.94478 | -1.54348 | 17593 ft | 354 kts | 148° |
| 2026-05-04 11:46 | 51.92365 | -1.52120 | 17279 ft | 352 kts | 148° |
| 2026-05-04 11:46 | 51.90319 | -1.49964 | 16988 ft | 349 kts | 148° |
| 2026-05-04 11:47 | 51.88311 | -1.47852 | 16684 ft | 348 kts | 148° |
| 2026-05-04 11:47 | 51.86260 | -1.45696 | 16370 ft | 346 kts | 148° |
| 2026-05-04 11:47 | 51.84248 | -1.43584 | 16073 ft | 344 kts | 148° |
| 2026-05-04 11:47 | 51.82268 | -1.41506 | 15783 ft | 343 kts | 148° |
| 2026-05-04 11:48 | 51.80268 | -1.39411 | 15488 ft | 341 kts | 148° |
| 2026-05-04 11:48 | 51.78274 | -1.37324 | 15193 ft | 340 kts | 148° |
| 2026-05-04 11:48 | 51.76283 | -1.35244 | 14945 ft | 339 kts | 148° |
| 2026-05-04 11:48 | 51.74320 | -1.33195 | 14792 ft | 334 kts | 148° |
| 2026-05-04 11:49 | 51.72366 | -1.31157 | 14619 ft | 336 kts | 148° |
| 2026-05-04 11:49 | 51.70389 | -1.29098 | 14447 ft | 339 kts | 148° |
| 2026-05-04 11:49 | 51.68403 | -1.27029 | 14238 ft | 339 kts | 148° |
| 2026-05-04 11:49 | 51.66424 | -1.24971 | 14052 ft | 337 kts | 148° |
| 2026-05-04 11:50 | 51.64456 | -1.22925 | 13887 ft | 336 kts | 148° |
| 2026-05-04 11:50 | 51.62496 | -1.20889 | 13703 ft | 335 kts | 149° |
| 2026-05-04 11:50 | 51.60535 | -1.18855 | 13502 ft | 335 kts | 149° |
| 2026-05-04 11:50 | 51.58579 | -1.16828 | 13316 ft | 333 kts | 149° |
| 2026-05-04 11:51 | 51.56631 | -1.14812 | 13157 ft | 332 kts | 149° |
| 2026-05-04 11:51 | 51.55097 | -1.13226 | 13002 ft | 332 kts | 149° |
| 2026-05-04 11:51 | 51.53180 | -1.11245 | 12837 ft | 332 kts | 149° |
| 2026-05-04 11:52 | 51.51242 | -1.09244 | 12669 ft | 331 kts | 149° |
| 2026-05-04 11:52 | 51.49303 | -1.07245 | 12485 ft | 330 kts | 149° |
| 2026-05-04 11:52 | 51.47371 | -1.05254 | 12211 ft | 330 kts | 149° |
| 2026-05-04 11:52 | 51.45443 | -1.03270 | 12041 ft | 327 kts | 149° |
| 2026-05-04 11:53 | 51.43531 | -1.01304 | 12048 ft | 327 kts | 149° |
| 2026-05-04 11:53 | 51.41608 | -0.99330 | 12006 ft | 328 kts | 149° |
| 2026-05-04 11:53 | 51.39690 | -0.97362 | 12019 ft | 327 kts | 149° |
| 2026-05-04 11:53 | 51.37773 | -0.95397 | 12029 ft | 328 kts | 149° |
| 2026-05-04 11:55 | 51.24519 | -0.81864 | 9597 ft | 315 kts | 149° |
| 2026-05-04 11:55 | 51.22688 | -0.80002 | 9121 ft | 308 kts | 149° |
| 2026-05-04 11:56 | 51.20933 | -0.78218 | 9045 ft | 290 kts | 149° |
| 2026-05-04 11:56 | 51.19266 | -0.76524 | 9024 ft | 278 kts | 149° |
| 2026-05-04 11:56 | 51.17656 | -0.74891 | 9022 ft | 270 kts | 149° |
| 2026-05-04 11:56 | 51.16070 | -0.73286 | 9021 ft | 271 kts | 149° |
| 2026-05-04 11:57 | 51.14469 | -0.71666 | 9040 ft | 274 kts | 149° |
| 2026-05-04 11:57 | 51.12842 | -0.70018 | 9035 ft | 279 kts | 149° |
| 2026-05-04 11:57 | 51.11198 | -0.68352 | 8912 ft | 282 kts | 148° |
| 2026-05-04 11:57 | 51.09817 | -0.66151 | 8559 ft | 286 kts | 119° |
| 2026-05-04 11:58 | 51.09301 | -0.64245 | 8487 ft | 281 kts | 111° |
| 2026-05-04 11:58 | 51.08421 | -0.60368 | 8165 ft | 276 kts | 111° |
| 2026-05-04 11:58 | 51.07995 | -0.58474 | 8013 ft | 274 kts | 111° |
| 2026-05-04 11:58 | 51.07355 | -0.55617 | 7781 ft | 272 kts | 111° |
| 2026-05-04 11:59 | 51.06721 | -0.52800 | 7487 ft | 271 kts | 111° |
| 2026-05-04 11:59 | 51.05929 | -0.50074 | 7048 ft | 275 kts | 130° |
| 2026-05-04 11:59 | 51.04392 | -0.48350 | 6667 ft | 273 kts | 164° |
| 2026-05-04 11:59 | 51.02542 | -0.48274 | 6285 ft | 266 kts | 198° |
| 2026-05-04 12:00 | 51.01024 | -0.49833 | 5894 ft | 262 kts | 232° |
| 2026-05-04 12:00 | 51.00351 | -0.52452 | 5497 ft | 259 kts | 267° |
| 2026-05-04 12:00 | 51.00754 | -0.55171 | 5122 ft | 255 kts | 303° |
| 2026-05-04 12:00 | 51.02063 | -0.56973 | 4742 ft | 252 kts | 339° |
| 2026-05-04 12:01 | 51.03761 | -0.57191 | 4375 ft | 244 kts | 16° |
| 2026-05-04 12:01 | 51.05154 | -0.55812 | 4012 ft | 235 kts | 49° |
| 2026-05-04 12:02 | 51.11137 | -0.44100 | 2954 ft | 208 kts | 68° |
| 2026-05-04 12:03 | 51.11574 | -0.42034 | 2896 ft | 190 kts | 72° |
| 2026-05-04 12:03 | 51.11926 | -0.40083 | 2697 ft | 177 kts | 76° |
| 2026-05-04 12:03 | 51.12192 | -0.38239 | 2483 ft | 169 kts | 77° |
| 2026-05-04 12:03 | 51.12442 | -0.36409 | 2215 ft | 170 kts | 77° |
| 2026-05-04 12:04 | 51.12688 | -0.34599 | 1992 ft | 165 kts | 77° |
| 2026-05-04 12:04 | 51.12928 | -0.32836 | 1775 ft | 161 kts | 77° |
| 2026-05-04 12:04 | 51.13161 | -0.31123 | 1558 ft | 154 kts | 77° |
| 2026-05-04 12:04 | 51.13378 | -0.29513 | 1351 ft | 144 kts | 77° |
| 2026-05-04 12:05 | 51.13585 | -0.28005 | 1219 ft | 136 kts | 77° |
| 2026-05-04 12:05 | 51.13793 | -0.26449 | 1022 ft | 144 kts | 77° |
| 2026-05-04 12:05 | 51.13996 | -0.24901 | 813 ft | 142 kts | 76° |
| 2026-05-04 12:05 | 51.14208 | -0.23370 | 626 ft | 141 kts | 77° |
| 2026-05-04 12:06 | 51.14342 | -0.22404 | 461 ft | 141 kts | 76° |
| 2026-05-04 12:06 | 51.14528 | -0.21067 | 299 ft | 138 kts | 77° |
| 2026-05-04 12:06 | 51.14722 | -0.19663 | 208 ft | 121 kts | 78° |
| 2026-05-04 12:06 | 51.14870 | -0.18595 | 202 ft | 77 kts | 77° |
| 2026-05-04 12:07 | 51.14954 | -0.18029 | 211 ft | 37 kts | 64° |
| 2026-05-04 12:07 | 51.15056 | -0.17783 | 215 ft | 9 kts | 51° |
| 2026-05-04 12:07 | 51.15108 | -0.17750 | 204 ft | 8 kts | 359° |
| 2026-05-04 12:07 | 51.15127 | -0.17751 | 204 ft | 0 kts | 359° |
| 2026-05-04 12:08 | 51.15140 | -0.17751 | 207 ft | 7 kts | 2° |
| 2026-05-04 12:08 | 51.15181 | -0.17674 | 204 ft | 10 kts | 78° |
| 2026-05-04 12:08 | 51.15197 | -0.17563 | 204 ft | 10 kts | 78° |
| 2026-05-04 12:08 | 51.15210 | -0.17465 | 204 ft | 7 kts | 78° |
| 2026-05-04 12:09 | 51.15214 | -0.17437 | 204 ft | 0 kts | 77° |
| 2026-05-04 12:10 | 51.15216 | -0.17423 | 204 ft | 3 kts | 77° |
| 2026-05-04 12:10 | 51.15226 | -0.17354 | 206 ft | 10 kts | 77° |
| 2026-05-04 12:10 | 51.15243 | -0.17226 | 209 ft | 12 kts | 78° |
| 2026-05-04 12:11 | 51.15260 | -0.17095 | 213 ft | 12 kts | 78° |
| 2026-05-04 12:11 | 51.15278 | -0.16967 | 209 ft | 12 kts | 78° |
| 2026-05-04 12:11 | 51.15295 | -0.16842 | 207 ft | 11 kts | 78° |
| 2026-05-04 12:11 | 51.15313 | -0.16721 | 206 ft | 11 kts | 68° |
| 2026-05-04 12:12 | 51.15349 | -0.16615 | 208 ft | 11 kts | 72° |
| 2026-05-04 12:12 | 51.15366 | -0.16513 | 208 ft | 7 kts | 58° |
| 2026-05-04 12:12 | 51.15393 | -0.16458 | 207 ft | 7 kts | 77° |
| 2026-05-04 12:12 | 51.15399 | -0.16407 | 208 ft | 0 kts | 78° |